createdAt,value
2022-09-15T08:36:15.757Z,25.68
2022-09-15T08:38:18.782Z,25.69
2022-09-15T08:40:26.835Z,25.15
2022-09-15T08:42:30.608Z,25.33
2022-09-15T08:44:59.651Z,25.02
2022-09-15T08:47:15.735Z,24.93
2022-09-15T08:49:51.640Z,24.77
2022-09-15T08:52:01.104Z,24.60
2022-09-15T08:54:11.441Z,24.59
2022-09-15T08:56:21.064Z,24.89
2022-09-15T08:58:27.143Z,25.08
2022-09-15T09:00:31.445Z,24.96
2022-09-15T09:02:57.533Z,24.73
2022-09-15T09:05:11.761Z,24.86
2022-09-15T09:07:43.364Z,25.02
2022-09-15T09:10:10.078Z,25.28
2022-09-15T09:12:44.826Z,24.92
2022-09-15T09:14:54.737Z,24.89
2022-09-15T09:17:24.541Z,24.86
2022-09-15T09:19:56.574Z,24.99
2022-09-15T09:22:17.916Z,25.77
2022-09-15T09:24:34.665Z,25.99
2022-09-15T09:26:37.270Z,25.92
2022-09-15T09:28:46.348Z,25.95
2022-09-15T09:30:48.832Z,25.73
2022-09-15T09:32:55.897Z,25.60
2022-09-15T09:35:05.300Z,25.54
2022-09-15T09:37:11.129Z,25.42
2022-09-15T09:39:15.887Z,25.20
2022-09-15T09:41:28.590Z,25.24
2022-09-15T09:43:32.013Z,25.39
2022-09-15T09:45:34.935Z,25.56
2022-09-15T09:47:39.394Z,25.58
2022-09-15T09:49:48.485Z,25.99
2022-09-15T09:51:53.529Z,26.74
2022-09-15T09:53:55.771Z,27.30
2022-09-15T09:56:24.712Z,27.36
2022-09-15T09:58:27.333Z,27.15
2022-09-15T10:00:34.304Z,27.19
2022-09-15T10:02:47.234Z,27.65
2022-09-15T10:05:12.293Z,27.79
2022-09-15T10:07:17.657Z,27.61
2022-09-15T10:09:20.728Z,27.62
2022-09-15T10:11:41.010Z,27.40
2022-09-15T10:13:52.868Z,27.44
2022-09-15T10:15:58.712Z,27.69
2022-09-15T10:18:01.791Z,27.75
2022-09-15T10:20:19.436Z,27.44
2022-09-15T10:22:32.655Z,27.25
2022-09-15T10:24:38.597Z,26.90
2022-09-15T10:26:42.409Z,26.83
2022-09-15T10:28:45.590Z,27.01
2022-09-15T10:31:13.671Z,27.36
2022-09-15T10:33:24.351Z,27.49
2022-09-15T10:35:32.830Z,27.48
2022-09-15T10:38:12.255Z,27.43
2022-09-15T10:40:37.519Z,27.73
2022-09-15T10:42:51.720Z,27.80
2022-09-15T10:45:12.444Z,27.44
2022-09-15T10:47:33.198Z,27.39
2022-09-15T10:50:03.592Z,27.56
2022-09-15T10:52:28.009Z,27.38
2022-09-15T10:55:15.331Z,27.49
2022-09-15T10:57:56.994Z,27.43
2022-09-15T11:00:13.278Z,27.33
2022-09-15T11:02:27.734Z,27.14
2022-09-15T11:04:51.631Z,27.23
2022-09-15T11:07:12.305Z,27.44
2022-09-15T11:09:27.751Z,27.62
2022-09-15T11:11:39.534Z,27.79
2022-09-15T11:13:44.505Z,27.65
2022-09-15T11:16:11.926Z,27.62
2022-09-15T11:18:49.985Z,27.63
2022-09-15T11:21:07.150Z,27.55
2022-09-15T11:23:34.814Z,27.48
2022-09-15T11:25:42.316Z,27.12
2022-09-15T11:27:53.922Z,26.42
2022-09-15T11:30:05.215Z,26.36
2022-09-15T11:32:15.780Z,26.09
2022-09-15T11:34:30.748Z,25.96
2022-09-15T11:36:51.438Z,25.85
2022-09-15T11:39:01.938Z,25.81
2022-09-15T11:41:33.623Z,25.88
2022-09-15T11:44:01.830Z,25.73
2022-09-15T11:46:13.452Z,25.86
2022-09-15T11:48:32.068Z,25.92
2022-09-15T11:50:38.856Z,26.12
2022-09-15T11:52:53.228Z,26.19
2022-09-15T11:55:21.905Z,26.31
2022-09-15T11:57:50.575Z,26.46
2022-09-15T12:00:00.728Z,26.59
2022-09-15T12:02:09.210Z,26.62
2022-09-15T12:04:22.065Z,26.91
2022-09-15T12:06:35.005Z,26.94
2022-09-15T12:08:51.468Z,26.90
2022-09-15T12:10:57.818Z,26.64
2022-09-15T12:13:01.223Z,26.28
2022-09-15T12:15:03.801Z,26.10
2022-09-15T12:17:09.810Z,25.97
2022-09-15T12:19:33.612Z,25.54
2022-09-15T12:22:00.832Z,25.46
2022-09-15T12:24:18.917Z,25.09
2022-09-15T12:26:23.452Z,24.99
2022-09-15T12:28:34.390Z,25.06
2022-09-15T12:30:42.803Z,25.10
2022-09-15T12:32:45.067Z,25.16
2022-09-15T12:35:16.489Z,25.33
2022-09-15T12:37:19.100Z,25.28
2022-09-15T12:39:40.836Z,25.20
2022-09-15T12:41:56.702Z,25.62
2022-09-15T12:44:06.092Z,25.88
2022-09-15T12:46:18.633Z,26.33
2022-09-15T12:48:27.654Z,26.07
2022-09-15T12:50:36.901Z,26.06
2022-09-15T12:52:51.542Z,26.12
2022-09-15T12:55:00.789Z,25.86
2022-09-15T12:57:03.687Z,25.72
2022-09-15T12:59:11.901Z,25.86
2022-09-15T13:01:23.101Z,26.00
2022-09-15T13:03:29.082Z,25.98
2022-09-15T13:05:52.441Z,25.70
2022-09-15T13:07:58.430Z,23.71
2022-09-15T13:10:10.817Z,20.66
2022-09-15T13:12:17.723Z,18.06
2022-09-15T13:21:56.945Z,13.04
